• Join FlightAware (Why Join?)
  • Login
  • US Flag 
12:53PM EST


 

Airport Tracker/Info


-or-


 

Live Flight TrackerFlight Track Log ✈ SWA2609 ✈ 04-Mar-2014 ✈ KPVD - KFLL

Flight Track Log - Related Links

Times and Time Zones

All times are in EST time to prevent confusion due to time zone crossing. See the SWA2609 flight status page for this flight to view local times or setup timezone preferences in your user account.

Time Position Orientation Groundspeed Altitude Reporting Facility
EST Latitude Longitude Course Direction KTS MPH feet Rate Location/Type
06:08AM 41.7339 -71.4186 240° Southwest 158 182 900  Level Boston Center
06:08AM 41.7350 -71.4131 75° East 153 176 1,100 2,000 Climbing Boston Center
06:09AM 41.7478 -71.3850 59° Northeast 161 185 2,100 2,500 Climbing Boston Center
06:09AM 41.7575 -71.3464 71° East 225 259 3,600 3,000 Climbing Boston Center
06:10AM 41.7647 -71.3056 77° East 225 259 5,100 2,951 Climbing Boston Center
06:10AM 41.7353 -71.2747 142° Southeast 254 292 6,600 2,557 Climbing Boston Center
06:11AM 41.7036 -71.2794 186° South 258 297 7,700 2,333 Climbing Boston Center
06:12AM 41.6236 -71.2783 179° South 285 328 10,100 2,231 Climbing Boston Center
06:13AM 41.5256 -71.2708 177° South 352 405 12,200 2,132 Climbing Boston Center
06:14AM 41.1530 -71.2652 240° Southwest  Level FlightAware Approximate
06:14AM 41.4203 -71.2636 177° South 376 433 14,400  Level Boston Center
06:15AM 41.3158 -71.2817 187° South 385 443 17,000 2,231 Climbing Boston Center
06:16AM 41.2475 -71.3739 225° Southwest 354 407 18,900 1,785 Climbing Boston Center
06:17AM 41.1861 -71.4578 226° Southwest 358 412 20,600 1,835 Climbing Boston Center
06:18AM 41.1017 -71.5722 226° Southwest 372 428 22,600 1,934 Climbing Boston Center
06:19AM 41.0269 -71.6747 226° Southwest 382 440 24,500 1,983 Climbing Boston Center
06:20AM 40.9500 -71.7794 226° Southwest 383 441 26,600 2,281 Climbing Boston Center
06:21AM 40.8792 -71.8750 226° Southwest 370 426 29,100 2,016 Climbing Boston Center
06:22AM 40.8222 -71.9514 225° Southwest 353 406 30,700 1,339 Climbing Boston Center
06:23AM 40.7553 -72.0422 226° Southwest 346 398 31,800 1,488 Climbing Boston Center
06:24AM 40.6747 -72.1492 225° Southwest 348 400 33,700 1,525 Climbing Boston Center
06:25AM 40.6100 -72.2367 226° Southwest 337 388 34,900 992 Climbing Boston Center
06:26AM 40.5467 -72.3239 226° Southwest 331 381 35,700 545 Climbing Boston Center
06:27AM 40.4803 -72.4106 225° Southwest 335 386 36,000 148 Climbing Boston Center
06:28AM 40.4128 -72.5000 225° Southwest 342 394 36,000  Level Boston Center
06:29AM 40.3458 -72.5894 226° Southwest 343 395 36,000  Level Boston Center
06:30AM 40.2786 -72.6764 225° Southwest 342 394 36,000  Level Boston Center
06:31AM 40.2119 -72.7661 226° Southwest 344 396 36,000  Level Boston Center
06:32AM 40.1431 -72.8531 224° Southwest 343 395 36,000  Level Boston Center
06:33AM 40.0750 -72.9411 225° Southwest 344 396 36,000  Level Boston Center
06:34AM 40.0064 -73.0306 225° Southwest 346 398 36,000  Level Boston Center
06:35AM 39.9372 -73.1203 225° Southwest 349 402 36,000  Level Boston Center
06:36AM 39.8911 -73.1794 225° Southwest 351 404 36,000  Level Washington Center
06:37AM 39.8222 -73.2681 225° Southwest 351 404 36,000  Level Washington Center
06:38AM 39.7550 -73.3567 225° Southwest 351 404 36,000  Level Washington Center
06:39AM 39.6858 -73.4478 225° Southwest 351 404 36,000  Level Washington Center
06:40AM 39.6167 -73.5361 225° Southwest 351 404 36,000  Level Washington Center
06:41AM 39.5472 -73.6217 224° Southwest 351 404 36,000  Level Washington Center
06:42AM 39.4778 -73.7122 225° Southwest 351 404 36,000  Level Washington Center
06:43AM 39.4103 -73.7972 224° Southwest 351 404 36,000  Level Washington Center
06:44AM 39.3408 -73.8875 225° Southwest 351 404 36,000  Level Washington Center
06:45AM 39.2733 -73.9750 225° Southwest 346 398 36,000  Level Washington Center
06:46AM 39.2036 -74.0622 224° Southwest 351 404 36,000  Level Washington Center
06:47AM 39.1317 -74.1494 223° Southwest 351 404 36,000  Level Washington Center
06:48AM 39.0639 -74.2308 223° Southwest 345 397 36,000  Level Washington Center
06:49AM 38.9939 -74.3231 226° Southwest 345 397 36,000  Level Washington Center
06:50AM 38.9239 -74.4097 224° Southwest 345 397 36,000  Level Washington Center
06:51AM 38.8539 -74.4961 224° Southwest 350 403 36,000  Level Washington Center
06:52AM 38.7839 -74.5850 225° Southwest 350 403 36,000  Level Washington Center
06:53AM 38.7136 -74.6711 224° Southwest 350 403 36,000  Level Washington Center
06:54AM 38.6372 -74.7678 225° Southwest 350 403 36,000  Level Washington Center
06:55AM 38.5606 -74.8456 218° Southwest 356 410 36,000  Level Washington Center
06:56AM 38.4714 -74.9156 212° Southwest 367 422 36,000  Level Washington Center
06:57AM 38.3842 -74.9772 209° Southwest 372 428 36,000  Level Washington Center
06:58AM 38.3053 -75.0414 213° Southwest 377 434 36,000  Level Washington Center
06:59AM 38.2181 -75.1108 212° Southwest 377 434 36,000  Level Washington Center
07:00AM 38.1306 -75.1747 210° Southwest 377 434 36,000  Level Washington Center
07:01AM 38.0411 -75.2411 210° Southwest 377 434 36,000  Level Washington Center
07:02AM 37.9539 -75.3075 211° Southwest 377 434 36,000  Level Washington Center
07:03AM 37.8642 -75.3736 210° Southwest 382 440 36,000  Level Washington Center
07:04AM 37.7664 -75.4264 203° Southwest 382 440 36,000  Level Washington Center
07:05AM 37.6683 -75.4789 203° Southwest 382 440 36,000  Level Washington Center
07:06AM 37.5703 -75.5317 203° Southwest 382 440 36,000  Level Washington Center
07:07AM 37.4725 -75.5814 202° Southwest 382 440 36,000  Level Washington Center
07:08AM 37.3764 -75.6336 203° Southwest 382 440 36,000  Level Washington Center
07:09AM 37.2764 -75.6858 203° Southwest 382 440 36,000  Level Washington Center
07:10AM 37.1781 -75.7378 203° Southwest 382 440 36,000  Level Washington Center
07:11AM 37.0781 -75.7897 203° Southwest 382 440 36,000  Level Washington Center
07:12AM 36.9672 -75.8442 201° Southwest 388 447 36,000  Level Washington Center
07:13AM 36.8692 -75.8956 203° Southwest 394 453 36,000  Level Washington Center
07:14AM 36.7689 -75.9472 202° Southwest 394 453 36,000  Level Washington Center
07:15AM 36.6686 -76.0011 203° Southwest 394 453 36,000  Level Washington Center
07:16AM 36.5703 -76.0522 203° Southwest 394 453 36,000  Level Washington Center
07:17AM 36.4700 -76.1058 203° Southwest 394 453 36,000  Level Washington Center
07:18AM 36.3967 -76.1828 220° Southwest 364 419 36,000  Level Washington Center
07:19AM 36.3503 -76.2831 240° Southwest 343 395 36,000  Level Washington Center
07:20AM 36.3078 -76.3808 242° Southwest 338 389 36,000  Level Washington Center
07:21AM 36.2197 -76.4494 212° Southwest 344 396 36,000  Level Washington Center
07:22AM 36.1192 -76.4969 201° Southwest 364 419 36,000  Level Washington Center
07:23AM 36.0167 -76.5447 201° Southwest 380 437 36,000  Level Washington Center
07:24AM 35.9139 -76.5922 201° Southwest 395 455 36,000  Level Washington Center
07:25AM 35.8092 -76.6397 200° South 400 460 36,000  Level Washington Center
07:26AM 35.7086 -76.6869 201° Southwest 400 460 36,000  Level Washington Center
07:27AM 35.6039 -76.7339 200° South 395 455 36,000  Level Washington Center
07:28AM 35.5011 -76.7811 201° Southwest 390 449 36,000  Level Washington Center
07:29AM 35.4131 -76.8231 201° Southwest 390 449 36,000  Level Washington Center
07:30AM 35.3083 -76.8722 201° Southwest 390 449 36,000  Level Washington Center
07:31AM 35.2056 -76.9189 200° South 390 449 36,000  Level Washington Center
07:32AM 35.1050 -76.9656 201° Southwest 390 449 36,000  Level Washington Center
07:33AM 35.0022 -77.0144 201° Southwest 390 449 36,000  Level Washington Center
07:34AM 34.8972 -77.0633 201° Southwest 395 455 36,000  Level Washington Center
07:35AM 34.7922 -77.1119 201° Southwest 395 455 36,000  Level Washington Center
07:36AM 34.6853 -77.1581 200° South 401 461 36,000  Level Washington Center
07:37AM 34.5825 -77.2067 201° Southwest 401 461 36,000  Level Washington Center
07:38AM 34.4753 -77.2522 199° South 407 468 36,000  Level Washington Center
07:39AM 34.3725 -77.3006 201° Southwest 407 468 36,000  Level Washington Center
07:40AM 34.2675 -77.3486 201° Southwest 407 468 36,000  Level Washington Center
07:41AM 34.1644 -77.3917 199° South 407 468 36,000  Level Washington Center
07:42AM 34.0575 -77.4394 200° South 407 468 36,000  Level Washington Center
07:42AM 33.9767 -77.4761 201° Southwest 419 482 36,000  Level Jacksonville Center
07:43AM 33.8928 -77.5114 199° South 403 464 36,000  Level Jacksonville Center
07:44AM 33.7864 -77.5603 201° Southwest 403 464 36,000  Level Jacksonville Center
07:45AM 33.6819 -77.6067 200° South 403 464 36,000  Level Jacksonville Center
07:46AM 33.5650 -77.6583 200° South 403 464 36,000  Level Jacksonville Center
07:47AM 33.4647 -77.7042 201° Southwest 403 464 36,000  Level Jacksonville Center
07:48AM 33.3581 -77.7503 200° South 403 464 36,000  Level Jacksonville Center
07:49AM 33.2514 -77.7936 199° South 403 464 36,000  Level Jacksonville Center
07:50AM 33.1447 -77.8394 200° South 403 464 36,000  Level Jacksonville Center
07:51AM 33.0397 -77.8775 197° South 403 464 36,000  Level Jacksonville Center
07:52AM 32.9331 -77.9231 200° South 403 464 36,000  Level Jacksonville Center
07:53AM 32.8283 -77.9658 199° South 403 464 36,000  Level Jacksonville Center
07:54AM 32.7233 -78.0061 198° South 403 464 36,000  Level Jacksonville Center
07:55AM 32.6186 -78.0514 200° South 398 458 36,000  Level Jacksonville Center
07:56AM 32.5139 -78.0939 199° South 403 464 36,000  Level Jacksonville Center
07:57AM 32.4092 -78.1364 199° South 403 464 36,000  Level Jacksonville Center
07:58AM 32.3022 -78.1786 198° South 403 464 36,000  Level Jacksonville Center
07:59AM 32.1975 -78.2258 201° Southwest 403 464 36,000  Level Jacksonville Center
08:00AM 32.0925 -78.2681 199° South 403 464 36,000  Level Jacksonville Center
08:01AM 31.9856 -78.3100 198° South 403 464 36,000  Level Jacksonville Center
08:02AM 31.8806 -78.3519 199° South 403 464 36,000  Level Jacksonville Center
08:03AM 31.7717 -78.3964 199° South 403 464 36,000  Level Jacksonville Center
08:04AM 31.6644 -78.4406 199° South 403 464 36,000  Level Jacksonville Center
08:05AM 31.5594 -78.4797 198° South 403 464 36,000  Level Jacksonville Center
08:06AM 31.4483 -78.5242 199° South 408 470 36,000  Level Jacksonville Center
08:07AM 31.3411 -78.5656 198° South 408 470 36,000  Level Jacksonville Center
08:08AM 31.2342 -78.6117 200° South 414 476 36,000  Level Jacksonville Center
08:09AM 31.1311 -78.6481 197° South 408 470 36,000  Level Jacksonville Center
08:10AM 31.0197 -78.6919 199° South 413 475 36,000  Level Jacksonville Center
08:11AM 30.9083 -78.7356 199° South 413 475 36,000  Level Jacksonville Center
08:12AM 30.8075 -78.7786 200° South 418 481 36,000  Level Jacksonville Center
08:14AM 30.5997 -78.8578 198° South 417 480 36,000  Level Miami Center
08:15AM 30.4950 -78.8989 199° South 411 473 36,000  Level Miami Center
08:16AM 30.3903 -78.9378 198° South 405 466 36,000  Level Miami Center
08:17AM 30.2856 -78.9767 198° South 405 466 36,000  Level Miami Center
08:18AM 30.1786 -79.0153 197° South 413 475 36,000  Level Miami Center
08:19AM 30.0678 -79.0442 193° South 406 467 36,000  Level Miami Center
08:20AM 29.9672 -79.0708 193° South 406 467 36,000  Level Miami Center
08:21AM 29.8603 -79.1022 194° South 406 467 36,000  Level Miami Center
08:22AM 29.7536 -79.1336 194° South 406 467 36,000  Level Miami Center
08:23AM 29.6406 -79.1597 191° South 406 467 36,000  Level Miami Center
08:24AM 29.5314 -79.1933 195° South 406 467 36,000 -400 Level Miami Center
08:25AM 29.4225 -79.2219 193° South 411 473 35,200 -900 Descending Miami Center
08:26AM 29.3114 -79.2503 193° South 411 473 34,200 -600 Descending Miami Center
08:27AM 29.2006 -79.2811 194° South 411 473 34,000 -100 Descending Miami Center
08:28AM 29.0872 -79.3097 192° South 411 473 34,000  Level Miami Center
08:29AM 28.9783 -79.3381 193° South 416 479 34,000  Level Miami Center
08:30AM 28.8692 -79.3689 194° South 411 473 34,000  Level Miami Center
08:31AM 28.7581 -79.3994 194° South 411 473 34,000  Level Miami Center
08:32AM 28.6428 -79.4275 192° South 416 479 34,000  Level Miami Center
08:33AM 28.5317 -79.4558 193° South 410 472 34,000  Level Miami Center
08:34AM 28.4206 -79.4839 193° South 410 472 34,000  Level Miami Center
08:35AM 28.3072 -79.5167 194° South 415 478 34,000  Level Miami Center
08:36AM 28.1919 -79.5469 193° South 415 478 34,000  Level Miami Center
08:37AM 28.0683 -79.5792 193° South 415 478 34,000  Level Miami Center
08:38AM 27.9528 -79.6069 192° South 415 478 34,000  Level Miami Center
08:39AM 27.8542 -79.6353 194° South 415 478 34,000  Level Miami Center
08:40AM 27.7389 -79.6628 192° South 420 483 34,000 -600 Level Miami Center
08:41AM 27.6131 -79.6950 193° South 420 483 32,800 -2,450 Descending Miami Center
08:42AM 27.4953 -79.7272 194° South 431 496 29,100 -3,550 Descending Miami Center
08:43AM 27.3758 -79.7569 192° South 431 496 25,700 -2,600 Descending Miami Center
08:44AM 27.2711 -79.7658 184° South 431 496 23,900 -2,100 Descending Miami Center
08:45AM 27.1544 -79.7514 174° South 421 484 21,500 -1,800 Descending Miami Center
08:46AM 27.0256 -79.7294 171° South 433 498 20,300 -1,100 Descending Miami Center
08:47AM 26.9069 -79.7081 171° South 423 487 19,300 -1,550 Descending Miami Center
08:48AM 26.8008 -79.6892 171° South 410 472 17,200 -2,600 Descending Miami Center
08:49AM 26.6939 -79.7119 191° South 387 445 14,100 -2,776 Descending Miami Center
08:49AM 26.6958 -79.7122 353° North 387 445 14,100 -2,900 Level Miami Center
08:50AM 26.6008 -79.7586 204° Southwest 387 445 11,200 -3,176 Descending Miami Center
08:50AM 26.5736 -79.7694 200° South 371 427 10,500 -2,080 Descending Miami Center
08:51AM 26.4850 -79.8114 203° Southwest 347 399 8,600 -1,486 Descending Miami Center
08:52AM 26.4239 -79.8400 203° Southwest 349 402 7,900 -590 Descending Miami Center
08:52AM 26.4050 -79.8489 203° Southwest 306 352 8,000  Climbing Miami Center
08:53AM 26.3561 -79.8847 213° Southwest 316 364 7,900  Descending Miami Center
08:53AM 26.3369 -79.9006 217° Southwest 286 329 8,000  Climbing Miami Center
08:54AM 26.2964 -79.9436 224° Southwest 298 343 7,900  Descending Miami Center
08:54AM 26.2731 -79.9639 218° Southwest 282 325 8,000 -700 Climbing Miami Center
08:55AM 26.2367 -79.9997 221° Southwest 286 329 7,200 -1,475 Descending Miami Center
08:55AM 26.2153 -80.0203 221° Southwest 282 325 6,500 -1,300 Descending Miami Center
08:56AM 26.1789 -80.0608 225° Southwest 286 329 5,900 -492 Descending Miami Center
08:56AM 26.1681 -80.0883 246° West 277 319 6,000  Climbing Miami Center
08:57AM 26.1542 -80.1389 253° West 264 304 5,900 -100 Descending Miami Center
08:57AM 26.1475 -80.1664 255° West 263 303 5,900 -1,300 Level Miami Center
08:58AM 26.1503 -80.2197 273° West 264 304 4,600 -1,672 Descending Miami Center
08:58AM 26.1456 -80.2472 259° West 269 310 4,200 -600 Descending Miami Center
08:59AM 26.1483 -80.3031 273° West 270 311 4,000 -492 Descending Miami Center
08:59AM 26.1314 -80.3211 224° Southwest 230 265 3,700 -1,012 Descending Miami Center
09:00AM 26.0836 -80.3058 164° South 182 209 2,600 -1,082 Descending Miami Center
09:02AM 26.0742 -80.2569 102° East 159 183 1,500 -934 Descending Miami Center
09:03AM 26.0733 -80.2083 91° East 149 171 700 -787 Descending Miami Center
09:05AM 26.0667 -80.1500 103° East  Level FlightAware Approximate
09:12AM 26.0726 -80.1527 103° East  Level Estimated